West Pike, Pennsylvania
Current Conditions -  °F | °C
As of 6:55 PM on Wednesday 22 Oct 2014 (Local Time) from KN38 Reporting Station
Haze Haze  
Wind Chill: 32°   Ceiling: 300
Heat Index: 41°   Visibility: 2.5mi
Dew Point: 41°   Wind: 17mph
Humidity: 100%   Direction: 350°N
Pressure: 30.09"   Gusts: 25mph
Location:  41.6755°N, 77.7071°W
Report Text: KN38 222255Z AUTO 35015G22KT 2 1/2SM BR OVC003 05/05 A3009 RMK AO2
Loading
Personal Weather Stations






























Interactive Weather Map
Tropical Storm Tracking
New forecast layout! Learn more

10-Day Weather Forecast

Advertisements
Track Severe Weather on mobile